Time;durP1;ratioP1;P1;durP2;ratioP2;P2;SDS_P1;SDS_P2;PMS_P1;PMS_P2;Temp;Humidity;BMP_temperature;BMP_pressure;BME280_temperature;BME280_humidity;BME280_pressure;Samples;Min_cycle;Max_cycle;Signal;HPM_P1;HPM_P2
2023/08/02 07:23:22;;;;;;;2.83;2.45;;;;;;;-145.79;100.00;75571.75;5309995;27;20398;-73
2023/08/02 07:25:56;;;;;;;2.50;2.30;;;;;;;-145.79;100.00;75567.53;5312199;28;20117;-74
2023/08/02 07:28:27;;;;;;;2.40;2.17;;;;;;;-145.79;100.00;75565.41;5310329;28;20040;-76
2023/08/02 07:31:06;;;;;;;3.22;2.40;;;;;;;-145.79;100.00;75546.34;5302229;28;20020;-75
2023/08/02 07:33:37;;;;;;;2.78;2.53;;;;;;;-145.79;100.00;75554.81;5312925;28;20032;-75
2023/08/02 07:36:17;;;;;;;2.78;2.47;;;;;;;-145.79;100.00;75546.34;5310094;28;20024;-75
2023/08/02 07:38:49;;;;;;;4.10;3.05;;;;;;;-145.79;100.00;75537.84;5309202;28;20040;-74
2023/08/02 07:41:20;;;;;;;3.90;2.55;;;;;;;-145.79;100.00;75516.66;5313551;28;20027;-75
2023/08/02 07:43:51;;;;;;;2.45;2.25;;;;;;;-145.79;100.00;75516.66;5312629;28;20344;-75
2023/08/02 07:46:23;;;;;;;2.75;2.10;;;;;;;-145.79;100.00;75501.84;5310065;28;20016;-74
2023/08/02 07:48:55;;;;;;;4.15;2.70;;;;;;;-145.79;100.00;75493.38;5312949;28;20047;-75
2023/08/02 07:51:26;;;;;;;2.90;2.10;;;;;;;-145.79;100.00;75478.53;5309333;28;20031;-75
2023/08/02 07:53:57;;;;;;;2.75;2.13;;;;;;;-145.79;100.00;75482.78;5308379;28;20099;-75
2023/08/02 07:56:29;;;;;;;2.95;1.92;;;;;;;-145.79;100.00;75474.28;5288540;28;20028;-74
2023/08/02 07:59:00;;;;;;;2.85;2.13;;;;;;;-145.79;100.00;75465.81;5304814;28;20034;-74
2023/08/02 08:01:32;;;;;;;3.83;2.17;;;;;;;-145.79;100.00;75453.09;5308658;28;20479;-75
2023/08/02 08:04:03;;;;;;;2.40;2.15;;;;;;;-145.79;100.00;75440.41;5308921;28;20107;-75
2023/08/02 08:06:35;;;;;;;2.72;1.85;;;;;;;-145.79;100.00;75444.63;5308317;28;20024;-75
2023/08/02 08:09:06;;;;;;;4.40;1.75;;;;;;;-145.79;100.00;75434.03;5306715;28;20375;-75
2023/08/02 08:11:37;;;;;;;2.28;1.60;;;;;;;-145.79;100.00;75436.16;5312089;28;20034;-74
2023/08/02 08:14:09;;;;;;;2.85;1.50;;;;;;;-145.79;100.00;75427.69;5301602;28;20033;-75
2023/08/02 08:16:40;;;;;;;3.05;1.60;;;;;;;-145.79;100.00;75436.16;5309346;28;20460;-74
2023/08/02 08:19:13;;;;;;;2.92;1.75;;;;;;;-145.79;100.00;75425.56;5312585;28;20543;-74
2023/08/02 08:21:44;;;;;;;1.90;1.30;;;;;;;-145.79;100.00;75427.69;5306610;28;20044;-75
2023/08/02 08:24:15;;;;;;;3.13;1.50;;;;;;;-145.79;100.00;75419.22;5307588;28;20035;-75
2023/08/02 08:26:47;;;;;;;3.72;1.90;;;;;;;-145.79;100.00;75412.84;5309848;28;20034;-75
2023/08/02 08:29:18;;;;;;;1.40;1.30;;;;;;;-145.79;100.00;75398.03;5311641;28;20055;-75
2023/08/02 08:31:49;;;;;;;1.63;1.30;;;;;;;-145.79;100.00;75387.44;5308290;28;20024;-73
2023/08/02 08:34:21;;;;;;;1.58;1.00;;;;;;;-145.79;100.00;75393.78;5294741;28;20028;-72
2023/08/02 08:36:52;;;;;;;2.78;1.23;;;;;;;-145.79;100.00;75385.31;5287352;28;20099;-76
2023/08/02 08:39:24;;;;;;;17.35;15.85;;;;;;;-145.79;100.00;75389.56;5294495;28;20021;-76
2023/08/02 08:41:58;;;;;;;1.45;1.10;;;;;;;-145.79;100.00;75376.84;5288379;28;20043;-73
2023/08/02 08:44:30;;;;;;;1.70;1.60;;;;;;;-145.79;100.00;75374.72;5294244;28;20028;-71
2023/08/02 08:47:03;;;;;;;1.50;1.30;;;;;;;-145.79;100.00;75359.91;5291470;28;20027;-73
2023/08/02 08:49:34;;;;;;;2.85;1.98;;;;;;;-145.79;100.00;75351.41;5281952;28;20103;-72
2023/08/02 08:52:11;;;;;;;1.40;1.30;;;;;;;-145.79;100.00;75347.19;5289079;28;20104;-73
2023/08/02 08:54:44;;;;;;;1.73;1.30;;;;;;;-145.79;100.00;75334.47;5288071;28;20024;-74
2023/08/02 08:57:16;;;;;;;1.60;1.50;;;;;;;-145.79;100.00;75326.00;5292431;28;20027;-79
2023/08/02 08:59:47;;;;;;;2.13;1.95;;;;;;;-145.79;100.00;75321.75;5286645;28;20427;-78
2023/08/02 09:02:19;;;;;;;1.38;1.27;;;;;;;-145.79;100.00;75319.63;5294343;28;20024;-77
2023/08/02 09:04:51;;;;;;;2.15;1.38;;;;;;;-145.79;100.00;75296.34;5285365;28;20024;-77
2023/08/02 09:07:23;;;;;;;4.03;1.85;;;;;;;-145.79;100.00;75279.38;5296314;28;20061;-76
2023/08/02 09:09:54;;;;;;;1.60;1.50;;;;;;;-145.79;100.00;75275.16;5285254;28;20028;-77
2023/08/02 09:12:27;;;;;;;1.40;1.30;;;;;;;-145.79;100.00;75275.16;5290088;28;20101;-76
2023/08/02 09:15:04;;;;;;;2.25;1.30;;;;;;;-145.79;100.00;75258.19;5291033;28;20020;-74
2023/08/02 09:17:47;;;;;;;1.40;1.30;;;;;;;-145.79;100.00;75245.50;5293609;28;20025;-75
2023/08/02 09:20:24;;;;;;;1.58;1.48;;;;;;;-145.79;100.00;75237.03;5297062;28;20099;-73
2023/08/02 09:22:55;;;;;;;2.25;1.50;;;;;;;-145.79;100.00;75220.06;5284655;28;20045;-74
2023/08/02 09:25:28;;;;;;;1.67;1.58;;;;;;;-145.79;100.00;75211.59;5292390;28;20036;-73
2023/08/02 09:28:11;;;;;;;2.75;1.55;;;;;;;-145.79;100.00;75194.66;5291335;28;20155;-74
2023/08/02 09:30:42;;;;;;;1.80;1.70;;;;;;;-145.79;100.00;75181.94;5291489;28;20475;-74
2023/08/02 09:33:13;;;;;;;1.65;1.55;;;;;;;-145.79;100.00;75175.59;5296560;28;20039;-74
2023/08/02 09:35:45;;;;;;;1.75;1.65;;;;;;;-145.79;100.00;75173.47;5296108;28;20509;-73
2023/08/02 09:38:16;;;;;;;1.60;1.50;;;;;;;-145.79;100.00;75181.94;5292417;28;20043;-74
2023/08/02 09:40:48;;;;;;;1.55;1.30;;;;;;;-145.79;100.00;75173.47;5293268;28;20032;-74
2023/08/02 09:43:19;;;;;;;1.77;1.50;;;;;;;-145.79;100.00;75165.00;5296700;28;20032;-73
2023/08/02 09:45:51;;;;;;;2.03;1.50;;;;;;;-145.79;100.00;75152.28;5294119;28;20020;-73
2023/08/02 09:48:36;;;;;;;4.90;4.40;;;;;;;-145.79;100.00;75131.09;5293046;28;20032;-74
2023/08/02 09:51:08;;;;;;;1.85;1.70;;;;;;;-145.79;100.00;75114.16;5294869;28;20025;-74
2023/08/02 09:53:40;;;;;;;3.55;1.80;;;;;;;-145.79;100.00;75101.44;5296565;28;20036;-73
2023/08/02 09:56:12;;;;;;;2.55;1.60;;;;;;;-145.79;100.00;75097.19;5295156;28;20124;-75
2023/08/02 09:58:44;;;;;;;1.45;1.33;;;;;;;-145.79;100.00;75090.84;5292802;28;20066;-74
2023/08/02 10:01:17;;;;;;;2.05;1.13;;;;;;;-145.79;100.00;75088.72;5292696;28;20024;-75
2023/08/02 10:03:55;;;;;;;1.15;1.05;;;;;;;-145.79;100.00;75088.72;5291398;28;20464;-74
2023/08/02 10:06:31;;;;;;;1.27;1.15;;;;;;;-145.79;100.00;75088.72;5294218;28;20115;-73
2023/08/02 10:09:05;;;;;;;1.70;1.13;;;;;;;-145.79;100.00;75084.50;5296609;28;20035;-73
2023/08/02 10:11:45;;;;;;;2.03;1.02;;;;;;;-145.79;100.00;75065.44;5292894;28;20426;-71
2023/08/02 10:14:17;;;;;;;1.98;1.40;;;;;;;-145.79;100.00;75050.59;5292117;28;20464;-73
2023/08/02 10:16:51;;;;;;;1.40;1.30;;;;;;;-145.79;100.00;75012.47;5284236;28;20383;-73
2023/08/02 10:19:23;;;;;;;1.98;1.20;;;;;;;-145.79;100.00;74982.81;5286859;28;20056;-73
2023/08/02 10:21:59;;;;;;;0.80;0.80;;;;;;;-145.79;100.00;74970.09;5299498;28;20090;-73
2023/08/02 10:24:31;;;;;;;2.30;1.38;;;;;;;-145.79;100.00;74951.03;5292732;28;20024;-75
2023/08/02 10:27:05;;;;;;;1.40;1.30;;;;;;;-145.79;100.00;74940.44;5296338;28;20016;-75
2023/08/02 10:29:38;;;;;;;1.63;1.10;;;;;;;-145.79;100.00;74953.16;5295367;28;20419;-77
2023/08/02 10:32:13;;;;;;;1.30;1.20;;;;;;;-145.79;100.00;74940.44;5292101;28;20025;-77
2023/08/02 10:34:46;;;;;;;;;;;;;;;-145.79;100.00;74919.25;5292641;28;20329;-76
2023/08/02 10:37:19;;;;;;;2.55;2.22;;;;;;;-145.79;100.00;74915.03;5277518;28;20212;-72
2023/08/02 10:39:51;;;;;;;2.35;1.20;;;;;;;-145.79;100.00;74919.25;5289774;28;20027;-76
2023/08/02 10:42:26;;;;;;;1.80;1.38;;;;;;;-145.79;99.86;74919.25;5291392;28;20120;-75
2023/08/02 10:44:57;;;;;;;1.75;1.60;;;;;;;-145.79;100.00;74915.03;5293202;28;20361;-76
2023/08/02 10:47:32;;;;;;;2.40;1.42;;;;;;;-145.79;98.35;74925.59;5295907;28;20020;-76
2023/08/02 10:50:04;;;;;;;;;;;;;;;-145.79;98.61;74931.97;5293720;28;20032;-76
2023/08/02 10:52:38;;;;;;;2.53;2.05;;;;;;;-145.79;100.00;74948.91;5291482;28;19912;-76
2023/08/02 10:55:12;;;;;;;2.00;1.73;;;;;;;-145.79;100.00;74948.91;5291570;28;20486;-76
2023/08/02 10:57:55;;;;;;;2.58;2.30;;;;;;;-145.79;100.00;74942.56;5294970;28;20031;-76
2023/08/02 11:00:29;;;;;;;3.50;1.90;;;;;;;-145.79;100.00;74940.44;5286435;28;20024;-76
2023/08/02 11:03:01;;;;;;;2.22;2.03;;;;;;;-145.79;100.00;74927.72;5283155;28;20055;-75
2023/08/02 11:05:44;;;;;;;1.63;1.50;;;;;;;-145.79;100.00;74936.19;5294272;28;20020;-72
2023/08/02 11:08:16;;;;;;;3.15;1.95;;;;;;;-145.79;100.00;74936.19;5286603;28;20033;-72
2023/08/02 11:10:49;;;;;;;2.03;1.75;;;;;;;-145.79;100.00;74953.16;5293085;28;20028;-72
2023/08/02 11:13:22;;;;;;;2.15;1.95;;;;;;;-145.79;100.00;74957.38;5295391;28;20034;-72
2023/08/02 11:16:02;;;;;;;2.13;1.92;;;;;;;-145.79;100.00;74961.63;5294703;28;20429;-72
2023/08/02 11:18:34;;;;;;;3.30;2.90;;;;;;;-145.79;100.00;74967.97;5293676;28;20044;-72
2023/08/02 11:21:10;;;;;;;2.78;2.50;;;;;;;-145.79;100.00;74974.34;5295592;28;20518;-71
2023/08/02 11:23:42;;;;;;;4.40;4.03;;;;;;;-145.79;100.00;74982.81;5292102;28;20739;-70
2023/08/02 11:26:14;;;;;;;2.45;1.60;;;;;;;-145.79;100.00;74999.75;5290518;28;20025;-70
2023/08/02 11:28:48;;;;;;;1.38;1.20;;;;;;;-145.79;100.00;74997.63;5281536;28;20085;-71
2023/08/02 11:31:27;;;;;;;2.05;1.60;;;;;;;-145.79;100.00;74989.16;5289860;28;20035;-70
2023/08/02 11:33:58;;;;;;;2.50;1.70;;;;;;;-145.79;100.00;74982.81;5282522;28;20027;-70
2023/08/02 11:36:33;;;;;;;3.63;2.60;;;;;;;-145.79;100.00;74957.38;5290543;28;20032;-69
2023/08/02 11:39:05;;;;;;;9.70;8.80;;;;;;;-145.79;100.00;74944.69;5294417;28;20031;-70
2023/08/02 11:41:36;;;;;;;3.13;2.10;;;;;;;-145.79;100.00;74944.69;5290017;28;20020;-73
2023/08/02 11:44:18;;;;;;;2.10;1.63;;;;;;;-145.79;100.00;74923.50;5296168;28;20028;-73
2023/08/02 11:46:56;;;;;;;3.92;1.90;;;;;;;-145.79;100.00;74915.03;5280405;28;20036;-73
2023/08/02 11:49:27;;;;;;;2.28;2.05;;;;;;;-145.79;100.00;74885.38;5288443;28;20047;-69
2023/08/02 11:52:01;;;;;;;2.65;2.15;;;;;;;-145.79;100.00;74885.38;5287835;28;20048;-69
2023/08/02 11:54:32;;;;;;;2.90;1.83;;;;;;;-145.79;100.00;74868.41;5293462;28;20032;-69
2023/08/02 11:57:05;;;;;;;2.80;2.20;;;;;;;-145.79;100.00;74866.28;5293844;28;20419;-69
2023/08/02 11:59:36;;;;;;;3.20;1.90;;;;;;;-145.79;100.00;74847.22;5289910;28;20033;-70
2023/08/02 12:02:33;;;;;;;3.42;2.60;;;;;;;-145.79;100.00;74838.75;5291190;28;20379;-69
2023/08/02 12:05:08;;;;;;;3.50;2.95;;;;;;;-145.79;100.00;74830.28;5286972;28;20410;-69
2023/08/02 12:07:39;;;;;;;4.20;3.40;;;;;;;-145.79;100.00;74823.94;5281592;28;20118;-69
2023/08/02 12:10:25;;;;;;;3.80;2.75;;;;;;;-145.79;100.00;74800.63;5294301;28;20102;-69
2023/08/02 12:12:58;;;;;;;2.88;2.60;;;;;;;-145.79;100.00;74766.75;5276744;28;20036;-71
2023/08/02 12:15:36;;;;;;;4.78;3.15;;;;;;;-145.79;98.20;74754.03;5297990;28;20183;-71
2023/08/02 12:18:08;;;;;;;6.22;2.40;;;;;;;-145.79;92.90;74741.31;5300865;28;20427;-71
2023/08/02 12:20:50;;;;;;;;;;;;;;;;;;;;;
2023/08/02 12:23:34;;;;;;;9.30;5.03;;;;;;;-145.79;88.15;74732.84;5280375;28;20052;-70
2023/08/02 12:26:05;;;;;;;4.63;2.53;;;;;;;-145.79;89.16;74749.78;5287272;28;20119;-70
2023/08/02 12:28:44;;;;;;;5.40;2.40;;;;;;;-145.79;89.34;74760.38;5294228;28;20136;-69
2023/08/02 12:31:15;;;;;;;4.57;3.25;;;;;;;-145.79;86.22;74770.97;5297934;28;20391;-71
2023/08/02 12:33:48;;;;;;;4.95;2.42;;;;;;;-145.79;86.00;74775.22;5295894;28;20028;-69
2023/08/02 12:36:29;;;;;;;5.10;2.22;;;;;;;-145.79;88.45;74770.97;5293808;28;20054;-70
2023/08/02 12:39:01;;;;;;;3.72;2.10;;;;;;;-145.79;82.75;74756.16;5293676;28;20027;-69
2023/08/02 12:41:32;;;;;;;6.85;2.20;;;;;;;-145.79;81.01;74732.84;5296227;28;20031;-71
2023/08/02 12:44:04;;;;;;;3.63;2.33;;;;;;;-145.79;77.85;74698.97;5295009;28;20067;-72
2023/08/02 12:46:35;;;;;;;4.03;2.05;;;;;;;-145.79;75.45;74682.00;5294225;28;20032;-71
2023/08/02 12:49:06;;;;;;;3.40;1.73;;;;;;;-145.79;70.69;74677.78;5293386;28;20070;-72
2023/08/02 12:51:41;;;;;;;4.18;1.63;;;;;;;-145.79;71.65;74654.47;5293717;28;20402;-71
2023/08/02 12:54:12;;;;;;;3.83;1.70;;;;;;;-145.79;67.22;74639.66;5294885;28;20418;-69
2023/08/02 12:56:43;;;;;;;4.63;1.75;;;;;;;-145.79;65.58;74629.06;5286959;28;20029;-69
2023/08/02 12:59:15;;;;;;;5.78;1.77;;;;;;;-145.79;63.97;74629.06;5295571;28;20032;-68
2023/08/02 13:01:46;;;;;;;3.15;1.35;;;;;;;-145.79;61.75;74616.34;5297699;28;20019;-71
2023/08/02 13:04:18;;;;;;;3.53;1.50;;;;;;;-145.79;60.80;74610.00;5295212;28;20031;-71
2023/08/02 13:06:49;;;;;;;3.47;1.52;;;;;;;-145.79;61.17;74605.75;5293406;28;20024;-69
2023/08/02 13:09:21;;;;;;;4.28;1.55;;;;;;;-145.79;58.24;74597.28;5293937;28;20033;-72
2023/08/02 13:11:52;;;;;;;4.28;3.08;;;;;;;-145.79;59.00;74595.16;5289850;28;20048;-69
2023/08/02 13:14:25;;;;;;;3.88;1.80;;;;;;;-145.79;59.86;74573.97;5294674;28;20430;-69
2023/08/02 13:16:56;;;;;;;7.43;5.28;;;;;;;-145.79;58.72;74567.63;5296559;28;20103;-71
2023/08/02 13:19:28;;;;;;;4.68;1.73;;;;;;;-145.79;58.48;74550.69;5295593;28;20111;-70
2023/08/02 13:21:59;;;;;;;4.45;1.60;;;;;;;-145.79;58.34;74552.81;5293254;28;20051;-71
2023/08/02 13:24:30;;;;;;;2.10;1.80;;;;;;;-145.79;57.57;74588.81;5292806;28;20036;-71
2023/08/02 13:27:02;;;;;;;7.63;2.47;;;;;;;-145.79;59.87;74605.75;5296932;28;20030;-70
2023/08/02 13:29:33;;;;;;;4.38;1.52;;;;;;;-145.79;58.02;74648.13;5293693;28;20024;-71
2023/08/02 13:32:05;;;;;;;3.63;1.38;;;;;;;-145.79;57.98;74669.31;5292185;28;20089;-71
2023/08/02 13:34:37;;;;;;;2.25;1.23;;;;;;;-145.79;57.44;74639.66;5293004;28;20028;-71
2023/08/02 13:37:09;;;;;;;2.35;1.27;;;;;;;-145.79;57.60;74614.22;5296588;28;20020;-69
2023/08/02 13:39:40;;;;;;;3.92;1.48;;;;;;;-145.79;57.58;74618.47;5296718;28;20028;-70
2023/08/02 13:42:11;;;;;;;3.63;1.45;;;;;;;-145.79;58.17;74626.94;5292740;28;20020;-70
2023/08/02 13:44:43;;;;;;;2.72;1.27;;;;;;;-145.79;59.05;74620.59;5295970;28;20074;-71
2023/08/02 13:47:14;;;;;;;3.67;1.33;;;;;;;-145.79;58.65;74631.19;5288032;28;20077;-71
2023/08/02 13:49:46;;;;;;;2.03;1.10;;;;;;;-145.79;59.87;74641.75;5292378;28;20017;-70
2023/08/02 13:52:17;;;;;;;2.17;1.10;;;;;;;-145.79;59.84;74652.34;5295444;28;20039;-70
2023/08/02 13:54:48;;;;;;;2.33;1.27;;;;;;;-145.79;58.40;74677.78;5297082;28;20356;-70
2023/08/02 13:57:20;;;;;;;1.98;1.00;;;;;;;-145.79;57.22;74673.53;5293202;28;20108;-70
2023/08/02 13:59:51;;;;;;;2.60;2.22;;;;;;;-145.79;55.90;74639.66;5291614;28;20082;-70
2023/08/02 14:02:23;;;;;;;4.53;2.13;;;;;;;-145.79;54.40;74603.63;5290984;28;20024;-70
2023/08/02 14:04:54;;;;;;;1.90;1.02;;;;;;;-145.79;54.16;74580.34;5284691;28;20032;-70
2023/08/02 14:07:25;;;;;;;3.55;1.10;;;;;;;-145.79;53.92;74599.41;5293561;28;20025;-70
2023/08/02 14:09:57;;;;;;;2.15;0.90;;;;;;;-145.79;53.64;74605.75;5296730;28;20147;-70
2023/08/02 14:12:28;;;;;;;4.47;1.27;;;;;;;-145.79;54.36;74616.34;5292925;28;20063;-73
2023/08/02 14:14:59;;;;;;;2.45;1.00;;;;;;;-145.79;53.89;74584.56;5292089;28;20047;-74
2023/08/02 14:17:31;;;;;;;3.75;1.00;;;;;;;-145.79;53.94;74576.09;5293760;28;20074;-71
2023/08/02 14:20:03;;;;;;;1.98;0.80;;;;;;;-145.79;53.66;74571.88;5288791;28;20535;-70
2023/08/02 14:22:35;;;;;;;6.32;1.17;;;;;;;-145.79;53.64;74546.44;5278732;28;20043;-70
2023/08/02 14:25:07;;;;;;;2.15;1.10;;;;;;;-145.79;53.00;74537.97;5297381;28;20055;-70
2023/08/02 14:27:38;;;;;;;2.10;0.82;;;;;;;-145.79;53.53;74554.91;5292525;28;20018;-70
2023/08/02 14:30:10;;;;;;;18.10;16.38;;;;;;;-145.79;54.80;74563.38;5296107;28;20040;-70
2023/08/02 14:32:41;;;;;;;1.42;0.98;;;;;;;-145.79;54.18;74584.56;5293801;28;20107;-70
2023/08/02 14:35:13;;;;;;;3.20;0.77;;;;;;;-145.79;53.64;74620.59;5290900;28;20020;-69
2023/08/02 14:37:45;;;;;;;2.20;0.80;;;;;;;-145.79;54.52;74631.19;5291974;28;20024;-68
2023/08/02 14:40:17;;;;;;;2.25;0.80;;;;;;;-145.79;54.51;74648.13;5294446;28;20418;-68
2023/08/02 14:42:48;;;;;;;1.13;0.70;;;;;;;-145.79;54.94;74660.81;5292101;28;20020;-69
2023/08/02 14:45:19;;;;;;;1.92;0.68;;;;;;;-145.79;54.87;74671.41;5295383;28;20020;-69
2023/08/02 14:47:51;;;;;;;2.05;1.13;;;;;;;-145.79;53.99;74677.78;5293975;28;20138;-69
2023/08/02 14:50:24;;;;;;;2.25;1.00;;;;;;;-145.79;53.33;74688.38;5294235;28;20031;-70
2023/08/02 14:52:55;;;;;;;3.58;0.82;;;;;;;-145.79;52.84;74671.41;5292576;28;20056;-69
2023/08/02 14:55:27;;;;;;;2.83;1.30;;;;;;;-145.79;51.97;74677.78;5286676;28;20024;-69
2023/08/02 14:57:58;;;;;;;1.35;0.90;;;;;;;-145.79;52.17;74669.31;5289542;28;20025;-70
2023/08/02 15:00:30;;;;;;;2.03;0.85;;;;;;;-145.79;52.48;74673.53;5295369;28;20039;-69
2023/08/02 15:03:01;;;;;;;1.83;0.88;;;;;;;-145.79;52.29;74671.41;5282754;28;20025;-70
2023/08/02 15:05:32;;;;;;;3.55;1.10;;;;;;;-145.79;53.03;74679.88;5299291;28;20020;-70
2023/08/02 15:08:04;;;;;;;4.70;1.10;;;;;;;-145.79;52.77;74703.19;5291282;28;20116;-69
2023/08/02 15:10:35;;;;;;;1.85;1.17;;;;;;;-145.79;53.64;74707.44;5290655;28;20450;-69
2023/08/02 15:13:07;;;;;;;5.63;1.48;;;;;;;-145.79;54.93;74728.63;5291455;28;20161;-70
2023/08/02 15:15:38;;;;;;;4.05;0.90;;;;;;;-145.79;55.00;74798.50;5293609;28;20059;-71
2023/08/02 15:18:10;;;;;;;1.83;0.95;;;;;;;-145.79;57.96;74859.94;5290753;28;20040;-71
2023/08/02 15:20:41;;;;;;;1.83;0.60;;;;;;;-145.79;60.19;74915.03;5292859;28;20471;-70
2023/08/02 15:23:12;;;;;;;2.08;1.00;;;;;;;-145.79;58.55;74938.31;5291075;28;20194;-70
2023/08/02 15:25:44;;;;;;;3.17;0.80;;;;;;;-145.79;60.34;74927.72;5293545;28;20029;-70
2023/08/02 15:28:15;;;;;;;1.73;0.60;;;;;;;-145.79;61.56;74919.25;5292950;28;20031;-71
2023/08/02 15:30:47;;;;;;;3.42;0.90;;;;;;;-145.79;61.11;74923.50;5286520;28;20040;-71
2023/08/02 15:33:19;;;;;;;1.63;0.73;;;;;;;-145.79;61.30;74915.03;5290476;28;20056;-71
2023/08/02 15:35:50;;;;;;;2.60;0.70;;;;;;;-145.79;61.68;74925.59;5288163;28;20068;-71
2023/08/02 15:38:21;;;;;;;1.58;0.90;;;;;;;-145.79;61.89;74921.38;5295211;28;20028;-71
2023/08/02 15:40:53;;;;;;;3.90;1.10;;;;;;;-145.79;63.15;74936.19;5284770;28;20040;-70
2023/08/02 15:43:24;;;;;;;1.60;0.70;;;;;;;-145.79;63.26;74929.84;5297121;28;20479;-71
2023/08/02 15:45:55;;;;;;;4.32;1.25;;;;;;;-145.79;63.44;74936.19;5290507;28;20035;-71
2023/08/02 15:48:27;;;;;;;3.38;1.30;;;;;;;-145.79;64.19;74938.31;5293257;28;20033;-70
2023/08/02 15:50:58;;;;;;;3.13;1.30;;;;;;;-145.79;64.58;74944.69;5284070;28;20056;-70
2023/08/02 15:53:30;;;;;;;2.47;1.58;;;;;;;-145.79;64.84;74942.56;5290589;28;20351;-70
2023/08/02 15:56:01;;;;;;;1.85;1.30;;;;;;;-145.79;65.29;74940.44;5283641;28;20016;-71
2023/08/02 15:58:33;;;;;;;2.97;1.25;;;;;;;-145.79;64.58;74936.19;5292787;28;20025;-73
2023/08/02 16:01:04;;;;;;;2.28;1.02;;;;;;;-145.79;63.47;74938.31;5289317;28;20054;-74
2023/08/02 16:03:39;;;;;;;4.10;1.95;;;;;;;-145.79;64.14;74938.31;5287442;28;20487;-72
2023/08/02 16:06:11;;;;;;;;;;;;;;;-145.79;63.16;74910.78;5294841;28;20025;-73
2023/08/02 16:08:44;;;;;;;2.72;1.15;;;;;;;-145.79;62.71;74927.72;5298555;28;19916;-73
2023/08/02 16:11:16;;;;;;;2.72;1.08;;;;;;;-145.79;62.87;74919.25;5296236;28;20508;-73
2023/08/02 16:13:47;;;;;;;3.53;1.30;;;;;;;-145.79;62.71;74919.25;5293980;28;20021;-73
2023/08/02 16:16:18;;;;;;;6.05;1.85;;;;;;;-145.79;62.77;74912.91;5294730;28;20028;-72
2023/08/02 16:18:49;;;;;;;4.82;1.63;;;;;;;-145.79;62.18;74919.25;5296692;28;20358;-73
2023/08/02 16:21:21;;;;;;;3.30;1.00;;;;;;;-145.79;62.05;74923.50;5298169;28;20036;-73
2023/08/02 16:23:52;;;;;;;4.22;1.40;;;;;;;-145.79;62.33;74931.97;5294343;28;20024;-73
2023/08/02 16:26:23;;;;;;;3.05;1.27;;;;;;;-145.79;61.77;74938.31;5293108;28;20023;-73
2023/08/02 16:28:55;;;;;;;3.38;1.60;;;;;;;-145.79;62.35;74927.72;5298151;28;20406;-73
2023/08/02 16:31:26;;;;;;;4.10;1.13;;;;;;;-145.79;61.80;74929.84;5297913;28;20020;-72
2023/08/02 16:33:58;;;;;;;2.92;1.30;;;;;;;-145.79;61.60;74929.84;5293605;28;20494;-73
2023/08/02 16:36:29;;;;;;;3.67;1.50;;;;;;;-145.79;61.72;74936.19;5274306;28;20017;-73
2023/08/02 16:39:00;;;;;;;2.17;1.00;;;;;;;-145.79;61.48;74925.59;5296934;28;20483;-73
2023/08/02 16:41:32;;;;;;;5.57;1.58;;;;;;;-145.79;61.50;74917.13;5293570;28;20099;-73
2023/08/02 16:44:03;;;;;;;2.30;1.10;;;;;;;-145.79;60.66;74898.06;5297110;28;20073;-73
2023/08/02 16:46:34;;;;;;;1.92;0.90;;;;;;;-145.79;59.30;74893.84;5297807;28;20016;-74
2023/08/02 16:49:06;;;;;;;3.38;0.98;;;;;;;-145.79;59.41;74885.38;5297366;28;20016;-73
2023/08/02 16:51:37;;;;;;;4.82;3.08;;;;;;;-145.79;59.05;74881.13;5297557;28;20042;-73
2023/08/02 16:54:09;;;;;;;2.78;1.10;;;;;;;-145.79;59.25;74889.59;5293171;28;20369;-73
